createdAt,value
2022-12-28T00:02:13.624Z,2.33
2022-12-28T00:04:40.328Z,1.30
2022-12-28T00:07:06.996Z,1.33
2022-12-28T00:09:33.779Z,1.40
2022-12-28T00:12:00.561Z,1.10
2022-12-28T00:14:27.255Z,3.50
2022-12-28T00:16:53.978Z,1.27
2022-12-28T00:19:20.692Z,1.00
2022-12-28T00:21:48.454Z,1.00
2022-12-28T00:24:21.151Z,1.50
2022-12-28T00:26:48.505Z,1.20
2022-12-28T00:29:15.616Z,1.40
2022-12-28T00:31:42.506Z,2.23
2022-12-28T00:34:09.215Z,1.27
2022-12-28T00:37:09.269Z,2.00
2022-12-28T00:39:22.588Z,1.10
2022-12-28T00:41:49.355Z,1.20
2022-12-28T00:44:16.074Z,1.40
2022-12-28T00:46:42.783Z,1.50
2022-12-28T00:49:09.594Z,1.40
2022-12-28T00:51:36.406Z,1.40
2022-12-28T00:54:03.188Z,1.30
2022-12-28T00:56:30.037Z,2.17
2022-12-28T00:58:59.404Z,1.60
2022-12-28T01:01:27.835Z,1.40
2022-12-28T01:03:58.525Z,2.07
2022-12-28T01:06:25.816Z,1.47
2022-12-28T01:08:52.779Z,1.30
2022-12-28T01:11:22.480Z,1.60
2022-12-28T01:13:50.671Z,2.43
2022-12-28T01:16:23.710Z,1.27
2022-12-28T01:18:54.055Z,1.20
2022-12-28T01:21:22.533Z,1.10
2022-12-28T01:23:49.979Z,1.20
2022-12-28T01:26:17.007Z,1.73
2022-12-28T01:28:43.684Z,1.90
2022-12-28T01:31:13.235Z,1.23
2022-12-28T01:33:40.439Z,1.30
2022-12-28T01:36:13.147Z,1.17
2022-12-28T01:38:40.040Z,1.90
2022-12-28T01:41:11.808Z,1.17
2022-12-28T01:43:52.495Z,1.47
2022-12-28T01:46:50.340Z,1.37
2022-12-28T01:49:22.101Z,1.10
2022-12-28T01:52:05.762Z,2.53
2022-12-28T01:54:45.600Z,1.20
2022-12-28T01:57:14.170Z,0.80
2022-12-28T01:59:44.821Z,1.33
2022-12-28T02:02:13.208Z,1.50
2022-12-28T02:04:40.062Z,0.80
2022-12-28T02:07:06.847Z,1.60
2022-12-28T02:09:40.138Z,1.10
2022-12-28T02:12:08.471Z,1.00
2022-12-28T02:14:35.638Z,1.03
2022-12-28T02:17:02.437Z,1.00
2022-12-28T02:19:49.035Z,2.70
2022-12-28T02:22:42.719Z,1.07
2022-12-28T02:25:41.248Z,0.87
2022-12-28T02:28:13.763Z,2.30
2022-12-28T02:31:06.171Z,1.27
2022-12-28T02:33:43.743Z,0.90
2022-12-28T02:36:34.381Z,1.10
2022-12-28T02:39:19.160Z,1.00
2022-12-28T02:41:47.111Z,1.20
2022-12-28T02:44:34.029Z,1.10
2022-12-28T02:47:19.731Z,1.20
2022-12-28T02:50:05.295Z,1.40
2022-12-28T02:52:37.566Z,1.00
2022-12-28T02:55:37.696Z,1.40
2022-12-28T02:58:22.388Z,0.70
2022-12-28T03:01:03.440Z,0.80
2022-12-28T03:04:06.819Z,1.50
2022-12-28T03:07:27.759Z,1.03
2022-12-28T03:10:00.181Z,1.93
2022-12-28T03:12:45.510Z,1.67
2022-12-28T03:15:29.855Z,1.13
2022-12-28T03:18:28.492Z,1.30
2022-12-28T03:21:17.662Z,1.30
2022-12-28T03:24:05.025Z,1.40
2022-12-28T03:26:52.920Z,1.07
2022-12-28T03:29:40.469Z,1.00
2022-12-28T03:32:07.581Z,1.00
2022-12-28T03:34:34.523Z,1.37
2022-12-28T03:37:32.900Z,1.00
2022-12-28T03:40:09.065Z,1.03
2022-12-28T03:43:07.243Z,1.03
2022-12-28T03:45:47.478Z,0.80
2022-12-28T03:48:16.788Z,1.30
2022-12-28T03:50:47.449Z,1.30
2022-12-28T03:53:16.067Z,1.27
2022-12-28T03:55:43.361Z,1.20
2022-12-28T03:58:10.212Z,1.20
2022-12-28T04:00:36.953Z,0.80
2022-12-28T04:03:03.756Z,1.00
2022-12-28T04:05:30.467Z,1.13
2022-12-28T04:07:57.220Z,0.93
2022-12-28T04:10:23.919Z,0.93
2022-12-28T04:12:55.832Z,1.20
2022-12-28T04:15:22.825Z,1.03
2022-12-28T04:17:49.580Z,0.80
2022-12-28T04:20:16.407Z,0.97
2022-12-28T04:22:43.087Z,0.90
2022-12-28T04:25:09.892Z,1.53
2022-12-28T04:27:36.667Z,0.90
2022-12-28T04:30:04.284Z,0.90
2022-12-28T04:32:31.057Z,4.60
2022-12-28T04:34:57.712Z,1.10
2022-12-28T04:37:24.472Z,0.90
2022-12-28T04:39:55.091Z,1.03
2022-12-28T04:42:23.506Z,1.13
2022-12-28T04:44:50.190Z,1.13
2022-12-28T04:47:16.879Z,1.10
2022-12-28T04:49:43.540Z,1.13
2022-12-28T04:52:10.204Z,1.07
2022-12-28T04:54:36.950Z,0.90
2022-12-28T04:57:03.691Z,0.83
2022-12-28T04:59:30.388Z,0.70
2022-12-28T05:01:57.331Z,0.87
2022-12-28T05:04:24.069Z,1.10
2022-12-28T05:06:50.822Z,1.17
2022-12-28T05:09:19.379Z,0.83
2022-12-28T05:11:46.882Z,1.30
2022-12-28T05:14:13.634Z,3.23
2022-12-28T05:16:40.476Z,0.93
2022-12-28T05:19:07.324Z,1.83
2022-12-28T05:21:34.361Z,0.90
2022-12-28T05:24:01.131Z,0.83
2022-12-28T05:26:29.246Z,0.93
2022-12-28T05:28:56.809Z,4.10
2022-12-28T05:31:24.094Z,0.90
2022-12-28T05:33:51.212Z,1.03
2022-12-28T05:36:23.854Z,0.80
2022-12-28T05:38:51.709Z,1.30
2022-12-28T05:41:24.536Z,1.10
2022-12-28T05:43:51.757Z,1.00
2022-12-28T05:46:24.969Z,0.87
2022-12-28T05:48:52.491Z,1.13
2022-12-28T05:51:21.549Z,0.80
2022-12-28T05:53:48.822Z,3.23
2022-12-28T05:56:17.925Z,1.03
2022-12-28T05:58:46.555Z,1.40
2022-12-28T06:01:15.166Z,0.70
2022-12-28T06:03:43.031Z,0.80
2022-12-28T06:06:18.071Z,0.90
2022-12-28T06:08:46.534Z,0.87
2022-12-28T06:11:15.911Z,0.77
2022-12-28T06:13:42.854Z,0.90
2022-12-28T06:16:17.264Z,0.83
2022-12-28T06:18:44.454Z,0.87
2022-12-28T06:21:12.785Z,1.57
2022-12-28T06:23:39.511Z,1.00
2022-12-28T06:26:10.826Z,1.00
2022-12-28T06:28:38.079Z,0.83
2022-12-28T06:31:28.086Z,1.10
2022-12-28T06:33:57.280Z,1.00
2022-12-28T06:36:29.841Z,1.00
2022-12-28T06:38:59.490Z,1.27
2022-12-28T06:41:27.543Z,0.70
2022-12-28T06:43:54.535Z,1.13
2022-12-28T06:46:23.278Z,1.17
2022-12-28T06:48:51.040Z,0.97
2022-12-28T06:51:20.339Z,1.17
2022-12-28T06:53:48.267Z,1.20
2022-12-28T06:56:18.024Z,1.30
2022-12-28T06:58:45.800Z,1.13
2022-12-28T07:01:18.631Z,0.80
2022-12-28T07:03:46.864Z,1.37
2022-12-28T07:06:16.053Z,1.37
2022-12-28T07:08:43.847Z,1.30
2022-12-28T07:11:16.342Z,1.07
2022-12-28T07:13:43.103Z,1.10
2022-12-28T07:16:24.482Z,1.13
2022-12-28T07:18:51.388Z,1.50
2022-12-28T07:21:22.041Z,1.70
2022-12-28T07:23:50.376Z,1.20
2022-12-28T07:26:22.752Z,1.07
2022-12-28T07:28:52.088Z,0.90
2022-12-28T07:31:30.584Z,1.27
2022-12-28T07:33:59.242Z,1.20
2022-12-28T07:36:28.012Z,1.20
2022-12-28T07:38:55.108Z,1.27
2022-12-28T07:41:24.182Z,2.30
2022-12-28T07:43:51.604Z,1.10
2022-12-28T07:46:29.910Z,1.37
2022-12-28T07:49:00.890Z,0.97
2022-12-28T07:51:33.060Z,1.10
2022-12-28T07:54:00.422Z,1.13
2022-12-28T07:56:29.224Z,1.50
2022-12-28T07:58:57.973Z,1.40
2022-12-28T08:01:27.262Z,1.10
2022-12-28T08:04:03.225Z,1.67
2022-12-28T08:06:33.450Z,1.47
2022-12-28T08:09:00.814Z,1.40
2022-12-28T08:11:30.384Z,1.20
2022-12-28T08:13:57.789Z,1.83
2022-12-28T08:16:27.046Z,2.20
2022-12-28T08:18:54.481Z,1.63
2022-12-28T08:21:24.421Z,1.10
2022-12-28T08:23:51.949Z,1.23
2022-12-28T08:26:36.405Z,3.73
2022-12-28T08:29:05.619Z,2.63
2022-12-28T08:31:35.164Z,2.50
2022-12-28T08:34:02.816Z,1.57
2022-12-28T08:36:29.882Z,2.33
2022-12-28T08:38:59.838Z,1.80
2022-12-28T08:41:28.585Z,1.20
2022-12-28T08:43:55.420Z,1.23
2022-12-28T08:46:24.451Z,1.20
2022-12-28T08:48:52.486Z,1.83
2022-12-28T08:51:22.086Z,1.33
2022-12-28T08:53:49.310Z,3.57
2022-12-28T08:56:19.971Z,1.60
2022-12-28T08:58:47.743Z,1.30
2022-12-28T09:01:17.529Z,1.50
2022-12-28T09:03:46.460Z,1.60
2022-12-28T09:06:17.341Z,1.67
2022-12-28T09:08:56.797Z,1.40
2022-12-28T09:11:31.145Z,3.07
2022-12-28T09:13:57.845Z,2.33
2022-12-28T09:16:27.688Z,1.67
2022-12-28T09:18:59.680Z,1.70
2022-12-28T09:21:32.887Z,1.90
2022-12-28T09:24:00.200Z,1.70
2022-12-28T09:26:29.252Z,1.87
2022-12-28T09:28:58.393Z,1.80
2022-12-28T09:31:27.915Z,1.57
2022-12-28T09:36:47.695Z,1.70
2022-12-28T09:39:17.792Z,1.80
2022-12-28T09:41:55.042Z,1.97
2022-12-28T09:44:27.608Z,1.50
2022-12-28T09:47:12.510Z,1.70
2022-12-28T09:49:55.042Z,2.17
2022-12-28T09:52:49.503Z,1.80
2022-12-28T09:55:18.737Z,1.73
2022-12-28T09:57:50.037Z,2.03
2022-12-28T10:00:20.185Z,1.90
2022-12-28T10:02:54.579Z,1.73
2022-12-28T10:05:22.660Z,1.47
2022-12-28T10:07:51.031Z,2.37
2022-12-28T10:10:20.312Z,1.87
2022-12-28T10:12:48.812Z,2.37
2022-12-28T10:15:16.309Z,2.20
2022-12-28T10:17:43.697Z,2.30
2022-12-28T10:20:19.907Z,2.63
2022-12-28T10:22:58.021Z,3.03
2022-12-28T10:25:26.549Z,2.97
2022-12-28T10:27:53.637Z,2.33
2022-12-28T10:30:29.721Z,4.53
2022-12-28T10:33:03.134Z,2.37
2022-12-28T10:35:38.065Z,2.00
2022-12-28T10:38:21.245Z,2.50
2022-12-28T10:40:58.012Z,2.10
2022-12-28T10:43:29.185Z,1.90
2022-12-28T10:45:58.175Z,2.00
2022-12-28T10:48:35.884Z,2.27
2022-12-28T10:51:14.971Z,4.87
2022-12-28T10:53:55.408Z,2.33
2022-12-28T10:56:25.885Z,3.00
2022-12-28T10:59:12.727Z,2.47
2022-12-28T11:01:41.472Z,2.20
2022-12-28T11:04:18.008Z,2.40
2022-12-28T11:07:01.637Z,1.93
2022-12-28T11:09:35.083Z,3.70
2022-12-28T11:12:25.708Z,2.87
2022-12-28T11:14:53.431Z,2.20
2022-12-28T11:17:25.610Z,2.50
2022-12-28T11:19:56.921Z,2.40
2022-12-28T11:22:29.788Z,3.53
2022-12-28T11:25:00.881Z,4.30
2022-12-28T11:27:27.950Z,5.73
2022-12-28T11:29:55.633Z,5.60
2022-12-28T11:32:29.883Z,6.10
2022-12-28T11:34:57.684Z,6.10
2022-12-28T11:37:24.393Z,6.33
2022-12-28T11:39:52.807Z,7.00
2022-12-28T11:42:39.893Z,7.90
2022-12-28T11:45:45.531Z,7.57
2022-12-28T11:48:43.194Z,7.43
2022-12-28T11:51:20.155Z,7.90
2022-12-28T11:53:46.791Z,6.70
2022-12-28T11:56:18.038Z,7.57
2022-12-28T11:58:58.296Z,7.27
2022-12-28T12:01:28.430Z,9.57
2022-12-28T12:03:58.058Z,7.13
2022-12-28T12:06:47.062Z,7.60
2022-12-28T12:09:25.837Z,8.03
2022-12-28T12:11:53.670Z,7.50
2022-12-28T12:14:45.468Z,8.37
2022-12-28T12:17:23.776Z,8.13
2022-12-28T12:20:02.328Z,8.23
2022-12-28T12:22:36.763Z,7.53
2022-12-28T12:25:15.700Z,8.37
2022-12-28T12:27:58.132Z,8.77
2022-12-28T12:30:25.374Z,8.87
2022-12-28T12:32:54.716Z,8.30
2022-12-28T12:35:27.473Z,8.70
2022-12-28T12:38:21.542Z,9.30
2022-12-28T12:40:57.277Z,7.70
2022-12-28T12:43:48.915Z,8.77
2022-12-28T12:46:18.557Z,10.73
2022-12-28T12:49:00.275Z,9.80
2022-12-28T12:51:49.494Z,9.20
2022-12-28T12:54:22.185Z,8.07
2022-12-28T12:57:00.993Z,9.43
2022-12-28T12:59:45.085Z,9.73
2022-12-28T13:02:11.950Z,8.27
2022-12-28T13:04:43.183Z,7.60
2022-12-28T13:07:21.057Z,6.23
2022-12-28T13:09:49.111Z,9.03
2022-12-28T13:12:17.484Z,7.20
2022-12-28T13:14:50.415Z,6.70
2022-12-28T13:17:22.589Z,7.63
2022-12-28T13:19:49.414Z,7.10
2022-12-28T13:22:30.202Z,7.43
2022-12-28T13:24:59.044Z,8.70
2022-12-28T13:27:29.716Z,7.23
2022-12-28T13:29:56.833Z,6.20
2022-12-28T13:32:38.298Z,7.27
2022-12-28T13:35:17.278Z,5.07
2022-12-28T13:37:44.383Z,5.63
2022-12-28T13:40:12.073Z,5.03
2022-12-28T13:42:53.735Z,5.67
2022-12-28T13:45:22.125Z,6.33
2022-12-28T13:47:51.687Z,5.30
2022-12-28T13:50:21.578Z,5.60
2022-12-28T13:52:52.003Z,5.10
2022-12-28T13:55:21.587Z,6.00
2022-12-28T13:57:57.326Z,6.03
2022-12-28T14:00:26.652Z,5.90
2022-12-28T14:02:54.987Z,5.77
2022-12-28T14:05:23.401Z,4.83
2022-12-28T14:07:51.234Z,4.87
2022-12-28T14:10:19.015Z,4.63
2022-12-28T14:12:46.559Z,4.93
2022-12-28T14:15:14.279Z,5.33
2022-12-28T14:17:41.952Z,5.00
2022-12-28T14:20:09.898Z,4.37
2022-12-28T14:22:38.591Z,5.03
2022-12-28T14:25:05.687Z,4.83
2022-12-28T14:27:36.608Z,4.63
2022-12-28T14:30:04.693Z,4.90
2022-12-28T14:32:32.319Z,5.50
2022-12-28T14:35:02.835Z,4.70
2022-12-28T14:37:36.194Z,4.90
2022-12-28T14:40:05.326Z,4.13
2022-12-28T14:42:32.581Z,4.47
2022-12-28T14:45:19.974Z,4.13
2022-12-28T14:47:47.941Z,6.10
2022-12-28T14:50:21.839Z,4.10
2022-12-28T14:52:50.591Z,3.97
2022-12-28T14:55:21.059Z,4.77
2022-12-28T14:57:49.163Z,4.40
2022-12-28T15:00:25.316Z,4.03
2022-12-28T15:02:52.996Z,4.10
2022-12-28T15:05:38.720Z,4.03
2022-12-28T15:08:05.998Z,3.93
2022-12-28T15:10:34.832Z,4.27
2022-12-28T15:13:01.920Z,4.10
2022-12-28T15:15:29.057Z,4.33
2022-12-28T15:17:56.288Z,3.83
2022-12-28T15:20:24.661Z,4.27
2022-12-28T15:22:51.860Z,4.30
2022-12-28T15:25:18.985Z,4.10
2022-12-28T15:27:49.175Z,3.93
2022-12-28T15:30:20.667Z,4.33
2022-12-28T15:32:51.492Z,4.60
2022-12-28T15:35:18.944Z,4.80
2022-12-28T15:37:46.655Z,6.77
2022-12-28T15:40:13.769Z,8.60
2022-12-28T15:42:44.047Z,8.27
2022-12-28T15:45:11.308Z,8.50
2022-12-28T15:47:38.408Z,9.70
2022-12-28T15:50:05.851Z,11.67
2022-12-28T15:52:33.104Z,11.23
2022-12-28T15:55:00.378Z,11.53
2022-12-28T15:57:27.558Z,10.13
2022-12-28T15:59:55.394Z,10.20
2022-12-28T16:02:23.097Z,8.70
2022-12-28T16:04:50.364Z,12.93
2022-12-28T16:07:19.101Z,7.50
2022-12-28T16:09:46.712Z,8.97
2022-12-28T16:12:17.484Z,8.60
2022-12-28T16:14:45.800Z,7.53
2022-12-28T16:17:13.247Z,6.43
2022-12-28T16:19:40.481Z,8.17
2022-12-28T16:22:07.658Z,7.43
2022-12-28T16:24:34.819Z,7.40
2022-12-28T16:27:01.980Z,6.90
2022-12-28T16:29:29.120Z,7.43
2022-12-28T16:31:58.959Z,6.77
2022-12-28T16:34:27.852Z,6.33
2022-12-28T16:36:57.146Z,6.43
2022-12-28T16:39:24.501Z,7.10
2022-12-28T16:41:51.244Z,6.90
2022-12-28T16:44:21.449Z,6.63
2022-12-28T16:46:49.076Z,7.03
2022-12-28T16:49:16.600Z,6.90
2022-12-28T16:51:45.317Z,7.10
2022-12-28T16:54:15.915Z,7.87
2022-12-28T16:56:43.819Z,7.17
2022-12-28T16:59:15.209Z,6.77
2022-12-28T17:01:43.097Z,5.57
2022-12-28T17:04:11.363Z,6.73
2022-12-28T17:06:39.601Z,6.30
2022-12-28T17:09:06.724Z,6.37
2022-12-28T17:11:33.680Z,5.60
2022-12-28T17:14:36.228Z,6.23
2022-12-28T17:17:03.597Z,6.20
2022-12-28T17:19:30.354Z,5.80
2022-12-28T17:21:57.086Z,5.63
2022-12-28T17:24:23.795Z,6.80
2022-12-28T17:26:50.516Z,6.30
2022-12-28T17:29:17.477Z,5.63
2022-12-28T17:31:44.301Z,5.70
2022-12-28T17:34:11.094Z,5.30
2022-12-28T17:36:37.862Z,6.03
2022-12-28T17:39:05.009Z,5.03
2022-12-28T17:41:31.921Z,4.73
2022-12-28T17:44:00.211Z,5.50
2022-12-28T17:46:29.540Z,6.07
2022-12-28T17:48:58.184Z,5.93
2022-12-28T17:51:26.312Z,5.37
2022-12-28T17:53:55.439Z,5.13
2022-12-28T17:56:22.260Z,6.50
2022-12-28T17:58:53.228Z,5.10
2022-12-28T18:01:20.057Z,6.40
2022-12-28T18:03:46.954Z,5.43
2022-12-28T18:06:13.871Z,5.10
2022-12-28T18:08:40.827Z,5.30
2022-12-28T18:11:11.113Z,5.10
2022-12-28T18:13:41.981Z,5.13
2022-12-28T18:16:13.451Z,4.60
2022-12-28T18:18:40.201Z,4.70
2022-12-28T18:21:10.793Z,5.90
2022-12-28T18:23:37.549Z,5.73
2022-12-28T18:26:05.408Z,5.73
2022-12-28T18:28:33.488Z,4.90
2022-12-28T18:31:02.514Z,4.60
2022-12-28T18:33:31.000Z,4.77
2022-12-28T18:35:59.430Z,5.17
2022-12-28T18:38:26.185Z,5.83
2022-12-28T18:40:54.925Z,5.60
2022-12-28T18:43:21.834Z,5.37
2022-12-28T18:45:58.959Z,5.10
2022-12-28T18:48:27.185Z,4.70
2022-12-28T18:51:09.167Z,5.30
2022-12-28T18:53:36.912Z,4.93
2022-12-28T18:56:06.350Z,5.03
2022-12-28T18:58:35.348Z,6.23
2022-12-28T19:04:02.250Z,5.00
2022-12-28T19:06:30.260Z,4.50
2022-12-28T19:09:01.108Z,5.17
2022-12-28T19:11:28.345Z,5.10
2022-12-28T19:13:55.258Z,4.90
2022-12-28T19:16:28.770Z,5.10
2022-12-28T19:18:58.842Z,4.60
2022-12-28T19:21:26.840Z,4.93
2022-12-28T19:23:54.977Z,5.00
2022-12-28T19:26:22.668Z,5.70
2022-12-28T19:28:49.900Z,4.77
2022-12-28T19:31:16.880Z,5.00
2022-12-28T19:33:43.627Z,4.87
2022-12-28T19:36:10.755Z,5.30
2022-12-28T19:38:37.477Z,4.77
2022-12-28T19:41:06.848Z,4.53
2022-12-28T19:43:33.833Z,4.80
2022-12-28T19:46:04.988Z,5.83
2022-12-28T19:48:31.812Z,6.87
2022-12-28T19:50:58.585Z,5.50
2022-12-28T19:53:25.339Z,5.23
2022-12-28T19:55:58.280Z,5.60
2022-12-28T19:58:25.604Z,5.50
2022-12-28T20:00:52.879Z,5.80
2022-12-28T20:03:19.777Z,5.77
2022-12-28T20:05:46.670Z,6.40
2022-12-28T20:08:13.339Z,5.57
2022-12-28T20:10:40.023Z,6.20
2022-12-28T20:13:06.731Z,5.40
2022-12-28T20:15:33.487Z,5.63
2022-12-28T20:18:00.155Z,5.40
2022-12-28T20:20:28.713Z,6.17
2022-12-28T20:22:59.667Z,5.10
2022-12-28T20:25:26.399Z,5.20
2022-12-28T20:27:53.490Z,4.80
2022-12-28T20:30:20.257Z,4.83
2022-12-28T20:32:47.035Z,5.30
2022-12-28T20:35:13.906Z,5.00
2022-12-28T20:37:40.747Z,5.30
2022-12-28T20:40:07.881Z,4.83
2022-12-28T20:42:53.524Z,5.83
2022-12-28T20:45:20.205Z,5.07
2022-12-28T20:47:46.968Z,5.00
2022-12-28T20:50:13.680Z,6.63
2022-12-28T20:52:40.377Z,5.30
2022-12-28T20:55:08.298Z,5.20
2022-12-28T20:57:35.414Z,4.87
2022-12-28T21:00:02.297Z,5.33
2022-12-28T21:02:28.975Z,5.27
2022-12-28T21:04:55.669Z,5.03
2022-12-28T21:07:22.356Z,5.77
2022-12-28T21:09:51.030Z,5.40
2022-12-28T21:12:17.856Z,5.50
2022-12-28T21:14:44.794Z,6.10
2022-12-28T21:17:11.502Z,5.37
2022-12-28T21:19:38.305Z,5.17
2022-12-28T21:22:04.982Z,5.40
2022-12-28T21:24:31.664Z,5.87
2022-12-28T21:26:58.328Z,5.30
2022-12-28T21:29:26.194Z,5.57
2022-12-28T21:31:53.474Z,5.60
2022-12-28T21:34:20.245Z,5.43
2022-12-28T21:36:46.937Z,5.07
2022-12-28T21:39:13.667Z,4.93
2022-12-28T21:41:49.328Z,5.33
2022-12-28T21:44:19.608Z,6.03
2022-12-28T21:46:48.691Z,5.57
2022-12-28T21:49:15.442Z,5.60
2022-12-28T21:51:42.458Z,5.57
2022-12-28T21:54:15.309Z,5.70
2022-12-28T21:56:44.067Z,4.73
2022-12-28T21:59:14.073Z,5.67
2022-12-28T22:02:00.727Z,5.20
2022-12-28T22:04:46.942Z,4.53
2022-12-28T22:07:16.800Z,5.93
2022-12-28T22:10:02.082Z,4.73
2022-12-28T22:12:34.925Z,5.47
2022-12-28T22:15:30.546Z,5.67
2022-12-28T22:18:00.610Z,5.33
2022-12-28T22:20:28.769Z,5.07
2022-12-28T22:22:57.289Z,5.30
2022-12-28T22:25:25.016Z,4.93
2022-12-28T22:27:51.861Z,5.00
2022-12-28T22:30:18.612Z,5.43
2022-12-28T22:32:45.289Z,5.10
2022-12-28T22:35:12.304Z,5.00
2022-12-28T22:37:39.301Z,4.60
2022-12-28T22:40:06.600Z,4.60
2022-12-28T22:42:33.359Z,5.03
2022-12-28T22:45:00.050Z,4.63
2022-12-28T22:47:28.135Z,5.03
2022-12-28T22:49:54.980Z,4.33
2022-12-28T22:52:21.804Z,5.33
2022-12-28T22:54:48.470Z,5.13
2022-12-28T22:57:15.205Z,4.83
2022-12-28T22:59:41.974Z,4.80
2022-12-28T23:02:08.869Z,4.20
2022-12-28T23:04:35.781Z,4.80
2022-12-28T23:07:04.130Z,5.20
2022-12-28T23:09:31.790Z,5.60
2022-12-28T23:11:58.736Z,5.13
2022-12-28T23:14:44.580Z,4.73
2022-12-28T23:17:14.103Z,6.50
2022-12-28T23:20:00.888Z,5.73
2022-12-28T23:22:48.944Z,5.07
2022-12-28T23:25:39.873Z,6.00
2022-12-28T23:28:08.978Z,6.20
2022-12-28T23:30:38.584Z,4.80
2022-12-28T23:33:05.518Z,6.50
2022-12-28T23:35:32.241Z,6.03
2022-12-28T23:37:59.045Z,5.13
2022-12-28T23:40:25.977Z,5.93
2022-12-28T23:42:54.351Z,6.10
2022-12-28T23:45:21.768Z,5.97
2022-12-28T23:47:51.679Z,5.20
2022-12-28T23:50:19.318Z,5.77
2022-12-28T23:52:46.103Z,6.50
2022-12-28T23:55:12.828Z,5.87
2022-12-28T23:57:39.640Z,6.00
